createdAt,value
2022-09-01T00:00:50.515Z,70.28
2022-09-01T00:05:55.441Z,70.42
2022-09-01T00:10:57.598Z,70.25
2022-09-01T00:16:01.335Z,70.53
2022-09-01T00:21:03.326Z,70.63
2022-09-01T00:26:05.927Z,70.63
2022-09-01T00:31:08.977Z,70.51
2022-09-01T00:36:10.901Z,70.56
2022-09-01T00:41:14.656Z,70.56
2022-09-01T00:46:21.996Z,70.21
2022-09-01T00:51:24.795Z,70.59
2022-09-01T00:56:26.961Z,70.76
2022-09-01T01:01:29.017Z,70.53
2022-09-01T01:06:33.377Z,70.06
2022-09-01T01:11:36.220Z,70.41
2022-09-01T01:16:45.471Z,70.03
2022-09-01T01:22:06.285Z,70.39
2022-09-01T01:27:08.505Z,70.36
2022-09-01T01:32:13.294Z,70.22
2022-09-01T01:37:15.608Z,70.32
2022-09-01T01:42:18.258Z,70.42
2022-09-01T01:47:20.763Z,70.18
2022-09-01T01:52:26.181Z,69.97
2022-09-01T01:57:33.308Z,69.79
2022-09-01T02:02:35.504Z,69.42
2022-09-01T02:07:42.564Z,69.76
2022-09-01T02:12:44.648Z,69.64
2022-09-01T02:17:47.316Z,69.43
2022-09-01T02:22:52.206Z,69.37
2022-09-01T02:27:55.714Z,69.24
2022-09-01T02:32:58.895Z,69.45
2022-09-01T02:38:01.935Z,68.68
2022-09-01T02:43:03.978Z,68.67
2022-09-01T02:48:10.540Z,69.06
2022-09-01T02:53:15.600Z,68.78
2022-09-01T02:58:20.372Z,68.67
2022-09-01T03:03:27.245Z,68.92
2022-09-01T03:08:31.893Z,68.97
2022-09-01T03:13:34.350Z,69.06
2022-09-01T03:18:37.033Z,68.64
2022-09-01T03:23:39.288Z,68.75
2022-09-01T03:28:41.500Z,68.72
2022-09-01T03:33:44.830Z,68.88
2022-09-01T03:38:56.066Z,68.95
2022-09-01T03:43:59.545Z,68.57
2022-09-01T03:49:06.796Z,68.12
2022-09-01T03:54:12.145Z,68.43
2022-09-01T03:59:17.406Z,68.08
2022-09-01T04:04:21.413Z,68.43
2022-09-01T04:09:23.549Z,68.23
2022-09-01T04:14:30.517Z,68.38
2022-09-01T04:19:39.818Z,68.12
2022-09-01T04:24:46.016Z,67.73
2022-09-01T04:29:48.668Z,67.68
2022-09-01T04:34:51.164Z,67.31
2022-09-01T04:39:56.866Z,67.30
2022-09-01T04:45:09.962Z,67.10
2022-09-01T04:50:17.927Z,66.94
2022-09-01T04:55:43.988Z,67.01
2022-09-01T05:00:48.607Z,67.04
2022-09-01T05:05:54.323Z,66.64
2022-09-01T05:10:57.477Z,67.04
2022-09-01T05:16:24.103Z,66.50
2022-09-01T05:21:30.014Z,66.54
2022-09-01T05:26:34.790Z,66.79
2022-09-01T05:31:38.378Z,66.80
2022-09-01T05:36:46.428Z,66.71
2022-09-01T05:41:50.089Z,66.77
2022-09-01T05:46:53.894Z,67.01
2022-09-01T05:51:59.032Z,67.02
2022-09-01T05:57:23.332Z,66.77
2022-09-01T06:02:27.565Z,66.85
2022-09-01T06:07:32.695Z,66.96
2022-09-01T06:12:36.242Z,67.19
2022-09-01T06:17:38.386Z,67.62
2022-09-01T06:22:41.334Z,67.68
2022-09-01T06:27:46.017Z,68.01
2022-09-01T06:32:49.909Z,68.25
2022-09-01T06:37:53.011Z,68.30
2022-09-01T06:43:17.560Z,68.75
2022-09-01T06:48:24.100Z,69.33
2022-09-01T06:53:32.721Z,69.48
2022-09-01T06:58:38.427Z,69.45
2022-09-01T07:03:40.560Z,69.35
2022-09-01T07:14:19.628Z,69.81
2022-09-01T07:19:22.072Z,68.87
2022-09-01T07:24:31.963Z,68.67
2022-09-01T07:29:56.428Z,69.06
2022-09-01T07:34:58.621Z,68.42
2022-09-01T07:45:35.460Z,68.12
2022-09-01T07:56:11.482Z,69.59
2022-09-01T08:01:23.312Z,69.75
2022-09-01T08:06:27.939Z,69.61
2022-09-01T08:16:54.229Z,69.91
2022-09-01T08:21:57.693Z,69.48
2022-09-01T08:27:10.309Z,69.38
2022-09-01T08:32:12.524Z,69.27
2022-09-01T08:37:14.699Z,69.13
2022-09-01T08:42:22.306Z,69.36
2022-09-01T08:47:39.331Z,69.46
2022-09-01T08:53:28.580Z,69.35
2022-09-01T08:58:32.597Z,69.12
2022-09-01T09:03:51.921Z,69.26
2022-09-01T09:09:03.642Z,69.67
2022-09-01T09:14:28.607Z,69.21
2022-09-01T09:19:36.106Z,69.43
2022-09-01T09:24:48.252Z,69.71
2022-09-01T09:29:56.762Z,68.50
2022-09-01T09:35:17.111Z,68.82
2022-09-01T09:40:27.253Z,69.32
2022-09-01T09:45:41.860Z,69.87
2022-09-01T09:50:44.468Z,68.84
2022-09-01T09:56:19.688Z,68.55
2022-09-01T10:01:26.120Z,68.33
2022-09-01T10:06:33.473Z,68.05
2022-09-01T10:11:41.965Z,68.13
2022-09-01T10:16:48.159Z,68.52
2022-09-01T10:21:50.726Z,68.58
2022-09-01T10:26:57.399Z,68.44
2022-09-01T10:32:30.497Z,68.44
2022-09-01T10:37:24.344Z,68.60
2022-09-01T10:42:28.325Z,68.90
2022-09-01T10:47:38.076Z,69.03
2022-09-01T10:52:43.177Z,68.81
2022-09-01T10:58:09.308Z,69.09
2022-09-01T11:03:40.889Z,69.08
2022-09-01T11:08:57.664Z,68.80
2022-09-01T11:14:00.871Z,68.97
2022-09-01T11:19:31.739Z,69.18
2022-09-01T11:24:40.404Z,69.41
2022-09-01T11:29:56.586Z,69.20
2022-09-01T11:35:03.654Z,69.08
2022-09-01T11:40:10.526Z,69.20
2022-09-01T11:45:23.690Z,69.55
2022-09-01T11:50:34.342Z,66.35
2022-09-01T11:55:44.956Z,69.03
2022-09-01T12:00:47.779Z,69.38
2022-09-01T12:06:00.574Z,69.42
2022-09-01T12:11:08.798Z,69.32
2022-09-01T12:16:18.524Z,69.27
2022-09-01T12:21:33.918Z,69.35
2022-09-01T12:26:36.051Z,69.17
2022-09-01T12:31:43.399Z,69.00
2022-09-01T12:37:09.980Z,69.02
2022-09-01T12:42:38.939Z,69.23
2022-09-01T12:47:48.442Z,69.49
2022-09-01T12:53:04.348Z,69.38
2022-09-01T12:58:09.200Z,69.26
2022-09-01T13:03:18.219Z,69.63
2022-09-01T13:08:23.287Z,69.75
2022-09-01T13:13:26.833Z,69.15
2022-09-01T13:18:29.650Z,69.51
2022-09-01T13:23:32.211Z,69.46
2022-09-01T13:28:36.371Z,69.44
2022-09-01T13:39:03.299Z,69.40
2022-09-01T13:44:05.398Z,69.20
2022-09-01T13:49:42.153Z,69.48
2022-09-01T13:54:29.763Z,69.31
2022-09-01T13:59:33.188Z,69.20
2022-09-01T14:04:35.299Z,69.63
2022-09-01T14:09:38.099Z,68.86
2022-09-01T14:20:03.305Z,68.70
2022-09-01T14:25:05.984Z,69.23
2022-09-01T14:30:10.107Z,68.84
2022-09-01T14:35:12.538Z,69.28
2022-09-01T14:40:17.176Z,69.29
2022-09-01T14:45:22.947Z,69.17
2022-09-01T14:50:25.774Z,69.59
2022-09-01T14:55:30.310Z,69.05
2022-09-01T15:00:36.119Z,69.59
2022-09-01T15:05:39.830Z,69.62
2022-09-01T15:10:42.537Z,69.64
2022-09-01T15:15:44.742Z,69.97
2022-09-01T15:20:47.025Z,69.90
2022-09-01T15:25:52.496Z,70.00
2022-09-01T15:30:54.741Z,70.15
2022-09-01T15:35:56.847Z,70.28
2022-09-01T15:41:00.229Z,72.84
2022-09-01T15:46:04.562Z,72.76
2022-09-01T15:51:26.601Z,72.70
2022-09-01T15:56:28.837Z,72.69
2022-09-01T16:01:34.674Z,73.77
2022-09-01T16:06:36.770Z,73.03
2022-09-01T16:11:40.329Z,73.94
2022-09-01T16:16:42.420Z,74.11
2022-09-01T16:22:10.664Z,74.69
2022-09-01T16:27:17.001Z,73.53
2022-09-01T16:32:21.675Z,71.51
2022-09-01T16:37:55.652Z,71.54
2022-09-01T16:43:09.514Z,70.85
2022-09-01T16:48:26.909Z,70.12
2022-09-01T16:54:24.948Z,70.03
2022-09-01T16:59:51.859Z,69.60
2022-09-01T17:05:05.219Z,69.60
2022-09-01T17:10:25.496Z,69.60
2022-09-01T17:15:41.012Z,69.49
2022-09-01T17:20:54.994Z,69.59
2022-09-01T17:26:05.101Z,69.80
2022-09-01T17:31:14.733Z,70.47
2022-09-01T17:36:51.868Z,71.12
2022-09-01T17:42:38.666Z,71.29
2022-09-01T17:48:07.859Z,71.56
2022-09-01T17:53:41.068Z,71.30
2022-09-01T17:58:56.443Z,71.42
2022-09-01T18:04:36.051Z,71.58
2022-09-01T18:09:45.907Z,72.11
2022-09-01T18:15:11.323Z,71.54
2022-09-01T18:20:27.449Z,71.96
2022-09-01T18:25:39.707Z,72.80
2022-09-01T18:30:59.926Z,72.98
2022-09-01T18:36:07.952Z,73.15
2022-09-01T18:41:43.493Z,73.01
2022-09-01T18:46:55.308Z,73.64
2022-09-01T18:52:09.354Z,74.08
2022-09-01T18:57:21.242Z,73.79
2022-09-01T19:02:48.397Z,73.75
2022-09-01T19:07:56.106Z,73.67
2022-09-01T19:13:18.194Z,73.57
2022-09-01T19:18:29.853Z,73.68
2022-09-01T19:23:47.650Z,73.58
2022-09-01T19:28:54.539Z,73.51
2022-09-01T19:34:25.633Z,73.39
2022-09-01T19:39:38.433Z,73.75
2022-09-01T19:44:49.123Z,73.60
2022-09-01T19:50:09.509Z,73.92
2022-09-01T19:55:29.176Z,74.09
2022-09-01T20:00:53.672Z,73.87
2022-09-01T20:06:05.010Z,74.27
2022-09-01T20:11:43.368Z,74.23
2022-09-01T20:16:49.889Z,74.54
2022-09-01T20:21:52.179Z,74.32
2022-09-01T20:27:05.514Z,74.26
2022-09-01T20:32:10.454Z,74.48
2022-09-01T20:37:36.829Z,74.49
2022-09-01T20:43:12.928Z,74.45
2022-09-01T20:48:18.478Z,73.96
2022-09-01T20:53:36.299Z,74.24
2022-09-01T20:58:53.015Z,74.05
2022-09-01T21:04:17.180Z,74.01
2022-09-01T21:09:25.870Z,74.13
2022-09-01T21:14:49.149Z,74.34
2022-09-01T21:20:09.982Z,74.21
2022-09-01T21:25:12.290Z,73.87
2022-09-01T21:30:15.351Z,73.88
2022-09-01T21:35:20.028Z,74.41
2022-09-01T21:40:25.569Z,74.18
2022-09-01T21:45:28.105Z,74.37
2022-09-01T21:50:30.510Z,74.29
2022-09-01T21:55:32.719Z,74.12
2022-09-01T22:00:39.534Z,74.05
2022-09-01T22:05:45.146Z,74.27
2022-09-01T22:10:49.934Z,74.27
2022-09-01T22:15:53.742Z,74.64
2022-09-01T22:21:07.612Z,74.59
2022-09-01T22:26:17.653Z,74.41
2022-09-01T22:31:21.598Z,74.49
2022-09-01T22:36:36.988Z,74.74
2022-09-01T22:41:41.204Z,74.49
2022-09-01T22:46:43.258Z,74.40
2022-09-01T22:51:45.645Z,74.58
2022-09-01T22:56:49.979Z,74.25
2022-09-01T23:01:52.055Z,74.52
2022-09-01T23:06:54.642Z,74.19
2022-09-01T23:11:57.003Z,74.24
2022-09-01T23:16:59.110Z,74.45
2022-09-01T23:22:01.367Z,74.49
2022-09-01T23:27:03.693Z,74.10
2022-09-01T23:32:05.895Z,74.24
2022-09-01T23:37:08.157Z,74.33
2022-09-01T23:42:10.590Z,74.41
2022-09-01T23:47:12.691Z,74.42
2022-09-01T23:52:15.278Z,74.45
2022-09-01T23:57:17.394Z,74.51
